createdAt,value
2023-02-28T00:01:04.335Z,102920.91
2023-02-28T00:03:34.610Z,102917.97
2023-02-28T00:06:04.014Z,102912.94
2023-02-28T00:08:33.019Z,102923.25
2023-02-28T00:11:01.184Z,102924.44
2023-02-28T00:13:30.419Z,102920.31
2023-02-28T00:15:59.745Z,102922.66
2023-02-28T00:18:31.382Z,102927.97
2023-02-28T00:21:00.414Z,102929.19
2023-02-28T00:23:29.108Z,102914.41
2023-02-28T00:25:58.181Z,102925.03
2023-02-28T00:28:26.422Z,102919.00
2023-02-28T00:30:55.726Z,102907.63
2023-02-28T00:33:25.161Z,102910.72
2023-02-28T00:35:56.543Z,102903.19
2023-02-28T00:38:25.829Z,102908.50
2023-02-28T00:40:55.273Z,102911.44
2023-02-28T00:43:24.554Z,102908.06
2023-02-28T00:45:53.461Z,102922.06
2023-02-28T00:48:22.432Z,102916.75
2023-02-28T00:50:50.638Z,102914.53
2023-02-28T00:53:19.030Z,102910.13
2023-02-28T00:55:47.930Z,102917.94
2023-02-28T00:58:17.374Z,102915.28
2023-02-28T01:00:46.637Z,102913.81
2023-02-28T01:03:15.151Z,102920.31
2023-02-28T01:05:43.871Z,102919.56
2023-02-28T01:08:12.799Z,102920.00
2023-02-28T01:10:41.611Z,102920.00
2023-02-28T01:13:10.406Z,102919.25
2023-02-28T01:15:39.649Z,102917.03
2023-02-28T01:18:08.830Z,102915.56
2023-02-28T01:20:37.712Z,102915.56
2023-02-28T01:23:06.936Z,102920.88
2023-02-28T01:25:35.687Z,102911.03
2023-02-28T01:28:06.099Z,102912.50
2023-02-28T01:30:35.748Z,102905.72
2023-02-28T01:33:04.554Z,102902.31
2023-02-28T01:35:34.858Z,102906.44
2023-02-28T01:38:20.527Z,102904.97
2023-02-28T01:40:49.939Z,102904.97
2023-02-28T01:43:18.330Z,102904.97
2023-02-28T01:45:46.730Z,102904.25
2023-02-28T01:48:15.605Z,102908.81
2023-02-28T01:50:44.356Z,102895.09
2023-02-28T01:53:13.113Z,102899.66
2023-02-28T01:55:50.288Z,102894.34
2023-02-28T01:58:21.578Z,102894.34
2023-02-28T02:00:50.038Z,102889.03
2023-02-28T02:03:19.023Z,102889.03
2023-02-28T02:05:48.563Z,102892.44
2023-02-28T02:08:17.473Z,102889.03
2023-02-28T02:10:46.800Z,102886.38
2023-02-28T02:13:15.618Z,102882.25
2023-02-28T02:15:44.485Z,102884.91
2023-02-28T02:18:13.375Z,102889.03
2023-02-28T02:20:42.220Z,102883.00
2023-02-28T02:23:12.016Z,102882.25
2023-02-28T02:25:42.249Z,102887.56
2023-02-28T02:28:11.505Z,102886.06
2023-02-28T02:30:40.263Z,102893.63
2023-02-28T02:33:09.002Z,102886.81
2023-02-28T02:35:37.804Z,102890.22
2023-02-28T02:38:06.643Z,102890.22
2023-02-28T02:40:37.782Z,102889.47
2023-02-28T02:43:06.602Z,102892.13
2023-02-28T02:45:35.013Z,102888.31
2023-02-28T02:48:03.853Z,102895.53
2023-02-28T02:50:32.751Z,102898.19
2023-02-28T02:53:01.535Z,102900.84
2023-02-28T02:55:30.981Z,102895.53
2023-02-28T02:57:59.821Z,102898.19
2023-02-28T03:00:28.687Z,102894.03
2023-02-28T03:02:57.530Z,102898.19
2023-02-28T03:05:26.800Z,102900.09
2023-02-28T03:07:56.680Z,102902.00
2023-02-28T03:10:25.559Z,102908.81
2023-02-28T03:12:54.898Z,102916.75
2023-02-28T03:15:24.716Z,102914.13
2023-02-28T03:17:53.655Z,102916.03
2023-02-28T03:20:22.509Z,102907.31
2023-02-28T03:22:51.829Z,102912.63
2023-02-28T03:25:22.308Z,102909.97
2023-02-28T03:27:52.501Z,102915.28
2023-02-28T03:30:21.841Z,102903.50
2023-02-28T03:32:54.371Z,102915.56
2023-02-28T03:35:23.906Z,102914.13
2023-02-28T03:37:54.115Z,102912.94
2023-02-28T03:40:23.344Z,102911.75
2023-02-28T03:42:51.789Z,102911.75
2023-02-28T03:45:20.582Z,102921.63
2023-02-28T03:47:48.990Z,102918.50
2023-02-28T03:50:18.952Z,102921.16
2023-02-28T03:52:50.207Z,102925.00
2023-02-28T03:55:19.782Z,102919.25
2023-02-28T03:57:48.713Z,102915.13
2023-02-28T04:00:17.174Z,102922.66
2023-02-28T04:02:46.477Z,102925.31
2023-02-28T04:05:15.686Z,102923.81
2023-02-28T04:07:44.434Z,102922.66
2023-02-28T04:10:13.217Z,102920.00
2023-02-28T04:12:41.682Z,102913.94
2023-02-28T04:15:09.688Z,102919.25
2023-02-28T04:17:39.821Z,102919.25
2023-02-28T04:20:10.100Z,102920.00
2023-02-28T04:22:39.403Z,102920.00
2023-02-28T04:25:08.734Z,102929.88
2023-02-28T04:27:37.979Z,102920.00
2023-02-28T04:30:07.228Z,102921.16
2023-02-28T04:32:36.044Z,102932.97
2023-02-28T04:35:05.345Z,102928.41
2023-02-28T04:37:34.561Z,102923.81
2023-02-28T04:40:03.432Z,102927.66
2023-02-28T04:42:32.044Z,102922.34
2023-02-28T04:45:00.773Z,102916.03
2023-02-28T04:47:29.657Z,102922.34
2023-02-28T04:49:58.609Z,102917.03
2023-02-28T04:52:26.859Z,102910.28
2023-02-28T04:54:56.177Z,102915.56
2023-02-28T04:57:24.964Z,102917.50
2023-02-28T04:59:54.176Z,102920.88
2023-02-28T05:02:22.295Z,102914.13
2023-02-28T05:04:50.514Z,102910.28
2023-02-28T05:07:19.815Z,102912.63
2023-02-28T05:09:49.036Z,102905.09
2023-02-28T05:12:17.904Z,102905.84
2023-02-28T05:14:47.115Z,102909.66
2023-02-28T05:17:16.391Z,102901.69
2023-02-28T05:19:45.617Z,102902.91
2023-02-28T05:22:14.756Z,102903.00
2023-02-28T05:24:43.909Z,102902.28
2023-02-28T05:27:13.173Z,102912.78
2023-02-28T05:29:42.037Z,102905.56
2023-02-28T05:32:11.450Z,102902.91
2023-02-28T05:34:40.883Z,102901.41
2023-02-28T05:37:10.163Z,102901.41
2023-02-28T05:39:39.396Z,102906.72
2023-02-28T05:42:08.662Z,102907.47
2023-02-28T05:44:38.004Z,102918.09
2023-02-28T05:47:07.412Z,102912.78
2023-02-28T05:49:36.717Z,102917.34
2023-02-28T05:52:09.764Z,102924.13
2023-02-28T05:54:38.949Z,102912.03
2023-02-28T05:57:15.480Z,102917.34
2023-02-28T05:59:51.587Z,102909.81
2023-02-28T06:02:20.591Z,102906.72
2023-02-28T06:04:49.286Z,102911.28
2023-02-28T06:07:18.470Z,102906.72
2023-02-28T06:09:46.765Z,102921.19
2023-02-28T06:12:15.981Z,102915.88
2023-02-28T06:14:44.335Z,102909.38
2023-02-28T06:17:13.578Z,102912.78
2023-02-28T06:19:42.561Z,102923.38
2023-02-28T06:22:11.723Z,102918.09
2023-02-28T06:24:40.284Z,102921.47
2023-02-28T06:27:10.740Z,102921.47
2023-02-28T06:29:40.239Z,102928.69
2023-02-28T06:32:09.881Z,102927.94
2023-02-28T06:34:37.658Z,102926.78
2023-02-28T06:37:06.614Z,102934.75
2023-02-28T06:39:35.630Z,102940.06
2023-02-28T06:42:06.191Z,102940.06
2023-02-28T06:44:35.732Z,102937.41
2023-02-28T06:47:07.401Z,102928.69
2023-02-28T06:49:37.454Z,102934.00
2023-02-28T06:52:06.864Z,102938.56
2023-02-28T06:54:34.917Z,102938.56
2023-02-28T06:57:03.893Z,102937.81
2023-02-28T06:59:33.195Z,102946.53
2023-02-28T07:02:02.094Z,102941.22
2023-02-28T07:04:30.766Z,102940.06
2023-02-28T07:06:59.570Z,102941.50
2023-02-28T07:09:28.773Z,102952.13
2023-02-28T07:11:57.913Z,102955.09
2023-02-28T07:14:26.697Z,102960.69
2023-02-28T07:16:55.698Z,102960.97
2023-02-28T07:19:24.282Z,102965.44
2023-02-28T07:21:53.446Z,102969.13
2023-02-28T07:24:22.628Z,102965.28
2023-02-28T07:26:51.396Z,102960.72
2023-02-28T07:29:20.176Z,102972.81
2023-02-28T07:31:49.094Z,102964.84
2023-02-28T07:34:17.967Z,102971.94
2023-02-28T07:36:47.304Z,102987.84
2023-02-28T07:39:16.284Z,102973.41
2023-02-28T07:41:45.121Z,102976.06
2023-02-28T07:44:14.598Z,102974.41
2023-02-28T07:46:43.979Z,102969.88
2023-02-28T07:49:12.899Z,102974.00
2023-02-28T07:51:42.196Z,102969.00
2023-02-28T07:54:11.402Z,102981.38
2023-02-28T07:56:40.172Z,102981.22
2023-02-28T07:59:09.349Z,102980.38
2023-02-28T08:01:38.080Z,102982.59
2023-02-28T08:04:06.828Z,102984.06
2023-02-28T08:06:35.371Z,102985.53
2023-02-28T08:09:03.616Z,102982.72
2023-02-28T08:11:32.877Z,102986.00
2023-02-28T08:14:02.221Z,102991.16
2023-02-28T08:16:31.202Z,102996.59
2023-02-28T08:19:01.649Z,102991.47
2023-02-28T08:21:30.962Z,102997.66
2023-02-28T08:23:59.963Z,102984.81
2023-02-28T08:26:29.324Z,102969.28
2023-02-28T08:29:00.355Z,102974.31
2023-02-28T08:31:30.893Z,102987.03
2023-02-28T08:34:00.265Z,102982.13
2023-02-28T08:36:28.663Z,102979.00
2023-02-28T08:38:57.406Z,102993.44
2023-02-28T08:41:26.248Z,102989.44
2023-02-28T08:43:55.302Z,102989.31
2023-02-28T08:46:23.884Z,102985.75
2023-02-28T08:48:52.722Z,102980.25
2023-02-28T08:51:22.413Z,102977.41
2023-02-28T08:53:51.227Z,102972.03
2023-02-28T08:56:20.503Z,102973.50
2023-02-28T08:58:49.751Z,102972.84
2023-02-28T09:01:19.066Z,102974.22
2023-02-28T09:03:48.457Z,102976.41
2023-02-28T09:06:17.122Z,102969.75
2023-02-28T09:08:44.982Z,102975.53
2023-02-28T09:11:13.571Z,102970.88
2023-02-28T09:13:42.828Z,102985.16
2023-02-28T09:16:12.177Z,102988.69
2023-02-28T09:18:41.412Z,102988.53
2023-02-28T09:21:10.241Z,102986.13
2023-02-28T09:23:40.404Z,102990.00
2023-02-28T09:26:10.705Z,102986.75
2023-02-28T09:28:39.688Z,102995.69
2023-02-28T09:31:08.436Z,102986.75
2023-02-28T09:33:37.711Z,102998.53
2023-02-28T09:36:06.761Z,102995.94
2023-02-28T09:38:35.569Z,102997.22
2023-02-28T09:41:08.557Z,102999.91
2023-02-28T09:43:37.867Z,102994.81
2023-02-28T09:46:07.265Z,102997.78
2023-02-28T09:48:36.502Z,102989.72
2023-02-28T09:51:05.820Z,102994.13
2023-02-28T09:53:35.309Z,102991.94
2023-02-28T09:56:04.649Z,103004.84
2023-02-28T09:58:33.636Z,102985.78
2023-02-28T10:01:02.530Z,102991.41
2023-02-28T10:03:31.857Z,102991.13
2023-02-28T10:06:00.663Z,102989.91
2023-02-28T10:08:29.375Z,102995.22
2023-02-28T10:10:58.141Z,102990.59
2023-02-28T10:13:27.308Z,102973.50
2023-02-28T10:15:56.746Z,102975.41
2023-02-28T10:18:26.102Z,102972.72
2023-02-28T10:20:55.456Z,102968.50
2023-02-28T10:23:24.919Z,102975.09
2023-02-28T10:25:54.206Z,102973.38
2023-02-28T10:28:27.081Z,102975.31
2023-02-28T10:30:56.027Z,102968.22
2023-02-28T10:33:24.892Z,102977.25
2023-02-28T10:35:53.913Z,102977.69
2023-02-28T10:38:22.438Z,102972.56
2023-02-28T10:40:51.217Z,102982.56
2023-02-28T10:43:24.241Z,102983.03
2023-02-28T10:45:52.945Z,102969.84
2023-02-28T10:48:21.313Z,102965.88
2023-02-28T10:50:51.213Z,102954.16
2023-02-28T10:53:19.978Z,102964.19
2023-02-28T10:55:48.849Z,102962.22
2023-02-28T10:58:17.645Z,102962.47
2023-02-28T11:00:46.955Z,102958.53
2023-02-28T11:03:16.206Z,102947.06
2023-02-28T11:05:45.451Z,102948.78
2023-02-28T11:08:14.813Z,102954.16
2023-02-28T11:10:44.346Z,102954.16
2023-02-28T11:13:13.622Z,102951.47
2023-02-28T11:15:42.893Z,102936.78
2023-02-28T11:18:12.117Z,102953.91
2023-02-28T11:20:40.978Z,102938.50
2023-02-28T11:23:10.246Z,102938.50
2023-02-28T11:25:39.502Z,102935.81
2023-02-28T11:28:08.381Z,102931.94
2023-02-28T11:30:37.733Z,102944.84
2023-02-28T11:33:07.033Z,102928.72
2023-02-28T11:35:36.578Z,102927.75
2023-02-28T11:38:05.738Z,102929.94
2023-02-28T11:40:34.566Z,102917.44
2023-02-28T11:43:03.879Z,102926.75
2023-02-28T11:45:33.103Z,102922.81
2023-02-28T11:48:02.280Z,102913.56
2023-02-28T11:50:31.156Z,102912.81
2023-02-28T11:53:00.534Z,102913.06
2023-02-28T11:55:30.911Z,102913.81
2023-02-28T11:58:00.965Z,102912.59
2023-02-28T12:00:29.346Z,102919.00
2023-02-28T12:02:58.320Z,102919.72
2023-02-28T12:05:27.490Z,102914.38
2023-02-28T12:07:56.792Z,102902.88
2023-02-28T12:10:26.136Z,102906.75
2023-02-28T12:12:59.446Z,102910.19
2023-02-28T12:15:28.368Z,102898.94
2023-02-28T12:17:57.684Z,102917.50
2023-02-28T12:20:27.005Z,102900.41
2023-02-28T12:22:56.282Z,102902.59
2023-02-28T12:25:25.554Z,102900.84
2023-02-28T12:27:54.975Z,102896.47
2023-02-28T12:30:24.233Z,102894.22
2023-02-28T12:32:53.489Z,102892.50
2023-02-28T12:35:22.557Z,102886.13
2023-02-28T12:37:50.764Z,102887.31
2023-02-28T12:40:19.941Z,102889.47
2023-02-28T12:42:49.168Z,102890.97
2023-02-28T12:45:18.335Z,102875.53
2023-02-28T12:47:47.593Z,102877.72
2023-02-28T12:50:17.290Z,102882.06
2023-02-28T12:52:46.632Z,102874.25
2023-02-28T12:55:16.015Z,102863.50
2023-02-28T12:57:45.058Z,102870.56
2023-02-28T13:00:13.419Z,102856.09
2023-02-28T13:02:41.864Z,102868.25
2023-02-28T13:05:10.440Z,102870.41
2023-02-28T13:07:39.470Z,102865.19
2023-02-28T13:10:08.710Z,102864.34
2023-02-28T13:12:38.583Z,102849.00
2023-02-28T13:15:07.896Z,102852.00
2023-02-28T13:17:37.139Z,102857.09
2023-02-28T13:20:06.395Z,102851.63
2023-02-28T13:22:35.737Z,102857.28
2023-02-28T13:25:05.061Z,102863.19
2023-02-28T13:27:33.849Z,102851.69
2023-02-28T13:30:03.089Z,102853.81
2023-02-28T13:32:31.362Z,102836.44
2023-02-28T13:35:00.578Z,102840.22
2023-02-28T13:37:29.910Z,102843.31
2023-02-28T13:39:59.171Z,102839.22
2023-02-28T13:42:28.198Z,102838.22
2023-02-28T13:44:56.392Z,102845.66
2023-02-28T13:47:25.478Z,102843.44
2023-02-28T13:49:53.748Z,102841.75
2023-02-28T13:52:21.495Z,102835.09
2023-02-28T13:54:49.779Z,102833.88
2023-02-28T13:57:19.021Z,102833.72
2023-02-28T13:59:48.231Z,102822.28
2023-02-28T14:02:17.476Z,102838.78
2023-02-28T14:04:46.235Z,102828.09
2023-02-28T14:07:15.496Z,102826.66
2023-02-28T14:09:44.846Z,102831.88
2023-02-28T14:12:14.187Z,102825.00
2023-02-28T14:14:43.506Z,102821.59
2023-02-28T14:17:12.711Z,102816.38
2023-02-28T14:19:41.977Z,102816.56
2023-02-28T14:22:11.241Z,102818.34
2023-02-28T14:24:40.454Z,102811.59
2023-02-28T14:27:09.771Z,102815.91
2023-02-28T14:29:39.068Z,102818.63
2023-02-28T14:32:07.972Z,102812.06
2023-02-28T14:34:36.780Z,102797.16
2023-02-28T14:37:05.989Z,102811.72
2023-02-28T14:39:35.185Z,102811.59
2023-02-28T14:42:04.486Z,102808.88
2023-02-28T14:44:33.526Z,102810.00
2023-02-28T14:47:02.202Z,102815.16
2023-02-28T14:49:30.985Z,102802.19
2023-02-28T14:51:59.752Z,102805.38
2023-02-28T14:54:29.343Z,102812.00
2023-02-28T14:56:58.690Z,102809.03
2023-02-28T14:59:27.484Z,102807.81
2023-02-28T15:01:56.678Z,102810.47
2023-02-28T15:04:26.024Z,102802.13
2023-02-28T15:06:55.432Z,102797.72
2023-02-28T15:09:24.721Z,102811.44
2023-02-28T15:11:54.031Z,102810.06
2023-02-28T15:14:22.451Z,102805.13
2023-02-28T15:16:51.092Z,102799.25
2023-02-28T15:19:20.584Z,102799.56
2023-02-28T15:21:49.919Z,102803.03
2023-02-28T15:24:19.245Z,102806.97
2023-02-28T15:26:48.554Z,102798.94
2023-02-28T15:29:17.732Z,102803.06
2023-02-28T15:31:56.921Z,102800.13
2023-02-28T15:34:33.718Z,102803.78
2023-02-28T15:37:06.350Z,102796.19
2023-02-28T15:39:35.595Z,102809.28
2023-02-28T15:42:04.891Z,102806.03
2023-02-28T15:44:34.774Z,102811.06
2023-02-28T15:47:04.967Z,102806.63
2023-02-28T15:49:42.689Z,102799.75
2023-02-28T15:52:13.922Z,102796.75
2023-02-28T15:54:43.161Z,102796.47
2023-02-28T15:57:12.470Z,102796.63
2023-02-28T15:59:41.707Z,102793.66
2023-02-28T16:02:10.728Z,102794.09
2023-02-28T16:04:40.166Z,102791.88
2023-02-28T16:07:09.412Z,102793.50
2023-02-28T16:09:38.635Z,102798.78
2023-02-28T16:12:07.482Z,102795.81
2023-02-28T16:14:36.302Z,102796.94
2023-02-28T16:17:05.031Z,102806.34
2023-02-28T16:19:34.847Z,102803.66
2023-02-28T16:22:03.496Z,102807.72
2023-02-28T16:24:32.289Z,102804.78
2023-02-28T16:27:01.577Z,102814.91
2023-02-28T16:29:30.600Z,102810.97
2023-02-28T16:31:59.270Z,102807.03
2023-02-28T16:34:28.617Z,102806.50
2023-02-28T16:36:57.931Z,102811.31
2023-02-28T16:39:27.282Z,102811.53
2023-02-28T16:41:56.612Z,102817.09
2023-02-28T16:44:25.592Z,102815.06
2023-02-28T16:46:54.242Z,102809.94
2023-02-28T16:49:23.536Z,102818.16
2023-02-28T16:51:53.345Z,102822.47
2023-02-28T16:54:22.671Z,102819.72
2023-02-28T16:56:52.016Z,102819.94
2023-02-28T16:59:21.260Z,102824.00
2023-02-28T17:01:51.529Z,102828.75
2023-02-28T17:04:21.881Z,102829.72
2023-02-28T17:06:51.154Z,102827.69
2023-02-28T17:09:20.883Z,102832.47
2023-02-28T17:11:49.096Z,102837.28
2023-02-28T17:14:17.964Z,102835.25
2023-02-28T17:16:47.314Z,102840.78
2023-02-28T17:19:16.759Z,102846.78
2023-02-28T17:21:46.060Z,102843.56
2023-02-28T17:24:22.086Z,102849.06
2023-02-28T17:26:58.215Z,102847.06
2023-02-28T17:29:27.118Z,102854.78
2023-02-28T17:32:03.116Z,102853.69
2023-02-28T17:34:38.229Z,102854.41
2023-02-28T17:37:07.610Z,102852.22
2023-02-28T17:39:36.809Z,102862.31
2023-02-28T17:42:05.999Z,102859.09
2023-02-28T17:44:34.889Z,102865.63
2023-02-28T17:47:03.867Z,102865.97
2023-02-28T17:49:32.467Z,102872.75
2023-02-28T17:52:01.973Z,102881.94
2023-02-28T17:54:30.811Z,102873.69
2023-02-28T17:56:59.595Z,102870.75
2023-02-28T17:59:28.801Z,102878.47
2023-02-28T18:01:58.028Z,102871.66
2023-02-28T18:04:27.299Z,102875.53
2023-02-28T18:06:56.559Z,102873.28
2023-02-28T18:09:25.937Z,102875.25
2023-02-28T18:11:55.259Z,102866.69
2023-02-28T18:14:24.598Z,102874.41
2023-02-28T18:16:54.026Z,102871.63
2023-02-28T18:19:22.956Z,102875.34
2023-02-28T18:21:51.491Z,102875.34
2023-02-28T18:24:20.769Z,102881.53
2023-02-28T18:26:49.722Z,102876.22
2023-02-28T18:29:18.481Z,102875.94
2023-02-28T18:31:48.131Z,102880.97
2023-02-28T18:34:16.944Z,102866.56
2023-02-28T18:36:45.883Z,102880.72
2023-02-28T18:39:14.516Z,102875.09
2023-02-28T18:41:44.024Z,102874.81
2023-02-28T18:44:19.908Z,102881.38
2023-02-28T18:46:49.808Z,102878.41
2023-02-28T18:49:18.683Z,102877.84
2023-02-28T18:51:47.992Z,102892.88
2023-02-28T18:54:17.319Z,102877.84
2023-02-28T18:56:46.675Z,102887.00
2023-02-28T18:59:15.474Z,102890.88
2023-02-28T19:01:44.777Z,102896.19
2023-02-28T19:04:14.137Z,102900.75
2023-02-28T19:06:43.332Z,102893.25
2023-02-28T19:09:12.214Z,102890.31
2023-02-28T19:11:41.517Z,102896.34
2023-02-28T19:14:10.763Z,102888.84
2023-02-28T19:16:39.686Z,102891.97
2023-02-28T19:19:08.902Z,102896.53
2023-02-28T19:21:37.866Z,102897.72
2023-02-28T19:24:06.727Z,102895.69
2023-02-28T19:26:36.397Z,102898.19
2023-02-28T19:29:06.046Z,102901.28
2023-02-28T19:31:35.638Z,102893.31
2023-02-28T19:34:08.407Z,102893.00
2023-02-28T19:36:37.185Z,102896.88
2023-02-28T19:39:05.647Z,102896.88
2023-02-28T19:41:34.261Z,102899.28
2023-02-28T19:44:03.497Z,102897.78
2023-02-28T19:46:32.324Z,102906.94
2023-02-28T19:49:01.143Z,102914.66
2023-02-28T19:51:30.011Z,102909.50
2023-02-28T19:53:59.074Z,102914.06
2023-02-28T19:56:27.721Z,102913.06
2023-02-28T19:58:56.547Z,102919.56
2023-02-28T20:01:25.436Z,102912.06
2023-02-28T20:03:54.700Z,102917.38
2023-02-28T20:06:23.940Z,102918.25
2023-02-28T20:08:53.090Z,102919.47
2023-02-28T20:11:22.278Z,102918.72
2023-02-28T20:13:51.560Z,102916.06
2023-02-28T20:16:21.033Z,102917.69
2023-02-28T20:18:50.712Z,102920.06
2023-02-28T20:21:20.151Z,102919.31
2023-02-28T20:23:49.458Z,102917.13
2023-02-28T20:26:19.055Z,102919.78
2023-02-28T20:28:48.480Z,102920.97
2023-02-28T20:31:17.624Z,102920.97
2023-02-28T20:33:47.046Z,102919.50
2023-02-28T20:36:16.464Z,102916.38
2023-02-28T20:38:45.432Z,102913.72
2023-02-28T20:41:14.737Z,102919.78
2023-02-28T20:43:43.480Z,102920.97
2023-02-28T20:46:12.962Z,102917.56
2023-02-28T20:48:42.072Z,102918.03
2023-02-28T20:51:10.646Z,102918.75
2023-02-28T20:53:39.988Z,102918.75
2023-02-28T20:56:08.992Z,102923.34
2023-02-28T20:58:36.843Z,102930.59
2023-02-28T21:01:05.463Z,102923.34
2023-02-28T21:03:34.774Z,102931.03
2023-02-28T21:06:04.048Z,102939.03
2023-02-28T21:08:33.362Z,102937.06
2023-02-28T21:11:02.675Z,102929.53
2023-02-28T21:13:31.958Z,102934.16
2023-02-28T21:16:01.175Z,102938.75
2023-02-28T21:18:30.418Z,102933.44
2023-02-28T21:20:59.727Z,102926.03
2023-02-28T21:23:28.111Z,102931.94
2023-02-28T21:25:56.875Z,102923.84
2023-02-28T21:28:26.125Z,102927.50
2023-02-28T21:30:55.460Z,102927.50
2023-02-28T21:33:28.588Z,102936.69
2023-02-28T21:35:57.785Z,102930.63
2023-02-28T21:38:26.283Z,102928.41
2023-02-28T21:40:54.598Z,102917.78
2023-02-28T21:43:23.164Z,102924.25
2023-02-28T21:45:51.881Z,102926.91
2023-02-28T21:48:20.586Z,102930.78
2023-02-28T21:50:49.440Z,102925.47
2023-02-28T21:53:18.774Z,102929.31
2023-02-28T21:55:48.031Z,102916.47
2023-02-28T21:58:17.253Z,102935.50
2023-02-28T22:00:46.467Z,102935.50
2023-02-28T22:03:15.325Z,102932.84
2023-02-28T22:05:44.560Z,102932.59
2023-02-28T22:08:13.914Z,102943.22
2023-02-28T22:10:43.188Z,102956.22
2023-02-28T22:13:12.521Z,102948.72
2023-02-28T22:15:41.771Z,102946.47
2023-02-28T22:18:11.995Z,102945.00
2023-02-28T22:20:42.296Z,102950.06
2023-02-28T22:23:11.494Z,102945.91
2023-02-28T22:25:40.758Z,102949.75
2023-02-28T22:28:09.917Z,102954.31
2023-02-28T22:30:38.902Z,102956.25
2023-02-28T22:33:07.602Z,102960.53
2023-02-28T22:35:35.993Z,102954.50
2023-02-28T22:38:05.219Z,102947.69
2023-02-28T22:40:35.550Z,102948.88
2023-02-28T22:43:04.427Z,102949.31
2023-02-28T22:45:37.736Z,102948.59
2023-02-28T22:48:06.055Z,102953.94
2023-02-28T22:50:35.506Z,102949.78
2023-02-28T22:53:04.784Z,102941.78
2023-02-28T22:55:34.028Z,102929.69
2023-02-28T22:58:03.168Z,102929.69
2023-02-28T23:00:31.948Z,102926.75
2023-02-28T23:03:00.655Z,102926.75
2023-02-28T23:05:29.839Z,102929.44
2023-02-28T23:07:59.120Z,102926.47
2023-02-28T23:10:28.052Z,102932.94
2023-02-28T23:12:56.173Z,102936.06
2023-02-28T23:15:25.393Z,102935.34
2023-02-28T23:17:54.370Z,102943.75
2023-02-28T23:20:23.021Z,102945.22
2023-02-28T23:22:52.261Z,102941.84
2023-02-28T23:25:21.444Z,102939.19
2023-02-28T23:27:50.602Z,102946.81
2023-02-28T23:30:19.576Z,102941.50
2023-02-28T23:32:48.299Z,102953.34
2023-02-28T23:35:17.560Z,102959.84
2023-02-28T23:37:46.370Z,102961.31
2023-02-28T23:40:15.608Z,102963.69
2023-02-28T23:42:44.968Z,102959.53
2023-02-28T23:45:14.227Z,102955.41
2023-02-28T23:47:43.539Z,102948.03
2023-02-28T23:50:12.743Z,102957.78
2023-02-28T23:52:42.022Z,102961.63
2023-02-28T23:55:11.345Z,102963.97
2023-02-28T23:57:40.625Z,102951.88
